sensor_id;sensor_type;location;lat;lon;timestamp;P1;durP1;ratioP1;P2;durP2;ratioP2
10005;SDS011;5042;42.626;23.382;2024-01-06T00:02:24;9.20;;;6.20;;
10005;SDS011;5042;42.626;23.382;2024-01-06T00:04:53;7.57;;;5.90;;
10005;SDS011;5042;42.626;23.382;2024-01-06T00:07:20;8.37;;;5.40;;
10005;SDS011;5042;42.626;23.382;2024-01-06T00:09:47;6.83;;;5.17;;
10005;SDS011;5042;42.626;23.382;2024-01-06T00:12:14;7.60;;;5.50;;
10005;SDS011;5042;42.626;23.382;2024-01-06T00:14:40;8.47;;;5.47;;
10005;SDS011;5042;42.626;23.382;2024-01-06T00:17:10;6.57;;;4.97;;
10005;SDS011;5042;42.626;23.382;2024-01-06T00:19:37;7.93;;;5.70;;
10005;SDS011;5042;42.626;23.382;2024-01-06T00:22:05;6.07;;;5.43;;
10005;SDS011;5042;42.626;23.382;2024-01-06T00:24:32;7.47;;;6.03;;
10005;SDS011;5042;42.626;23.382;2024-01-06T00:26:59;7.77;;;6.03;;
10005;SDS011;5042;42.626;23.382;2024-01-06T00:29:26;9.93;;;6.10;;
10005;SDS011;5042;42.626;23.382;2024-01-06T00:31:53;6.60;;;5.70;;
10005;SDS011;5042;42.626;23.382;2024-01-06T00:34:20;9.63;;;5.77;;
10005;SDS011;5042;42.626;23.382;2024-01-06T00:36:46;9.50;;;6.30;;
10005;SDS011;5042;42.626;23.382;2024-01-06T00:39:15;8.77;;;6.10;;
10005;SDS011;5042;42.626;23.382;2024-01-06T00:41:42;11.03;;;6.57;;
10005;SDS011;5042;42.626;23.382;2024-01-06T00:44:08;10.40;;;8.00;;
10005;SDS011;5042;42.626;23.382;2024-01-06T00:46:35;10.53;;;8.03;;
10005;SDS011;5042;42.626;23.382;2024-01-06T00:49:03;11.40;;;8.50;;
10005;SDS011;5042;42.626;23.382;2024-01-06T00:51:30;11.03;;;8.00;;
10005;SDS011;5042;42.626;23.382;2024-01-06T00:53:57;12.57;;;8.40;;
10005;SDS011;5042;42.626;23.382;2024-01-06T00:56:25;11.97;;;8.30;;
10005;SDS011;5042;42.626;23.382;2024-01-06T00:58:52;13.67;;;7.60;;
10005;SDS011;5042;42.626;23.382;2024-01-06T01:01:19;11.03;;;7.23;;
10005;SDS011;5042;42.626;23.382;2024-01-06T01:03:46;9.17;;;7.90;;
10005;SDS011;5042;42.626;23.382;2024-01-06T01:06:13;10.43;;;7.90;;
10005;SDS011;5042;42.626;23.382;2024-01-06T01:08:40;10.73;;;7.30;;
10005;SDS011;5042;42.626;23.382;2024-01-06T01:11:07;9.97;;;7.63;;
10005;SDS011;5042;42.626;23.382;2024-01-06T01:13:35;11.00;;;7.90;;
10005;SDS011;5042;42.626;23.382;2024-01-06T01:16:02;11.57;;;7.20;;
10005;SDS011;5042;42.626;23.382;2024-01-06T01:18:29;10.93;;;7.83;;
10005;SDS011;5042;42.626;23.382;2024-01-06T01:20:56;11.03;;;7.43;;
10005;SDS011;5042;42.626;23.382;2024-01-06T01:23:23;11.70;;;7.50;;
10005;SDS011;5042;42.626;23.382;2024-01-06T01:25:50;9.60;;;6.90;;
10005;SDS011;5042;42.626;23.382;2024-01-06T01:28:16;6.77;;;5.80;;
10005;SDS011;5042;42.626;23.382;2024-01-06T01:30:44;6.37;;;5.10;;
10005;SDS011;5042;42.626;23.382;2024-01-06T01:33:11;6.17;;;4.97;;
10005;SDS011;5042;42.626;23.382;2024-01-06T01:35:38;7.57;;;5.00;;
10005;SDS011;5042;42.626;23.382;2024-01-06T01:38:05;6.77;;;5.33;;
10005;SDS011;5042;42.626;23.382;2024-01-06T01:40:33;6.07;;;5.17;;
10005;SDS011;5042;42.626;23.382;2024-01-06T01:43:00;7.40;;;5.73;;
10005;SDS011;5042;42.626;23.382;2024-01-06T01:45:27;7.03;;;5.30;;
10005;SDS011;5042;42.626;23.382;2024-01-06T01:47:55;6.27;;;5.07;;
10005;SDS011;5042;42.626;23.382;2024-01-06T01:50:22;6.70;;;5.20;;
10005;SDS011;5042;42.626;23.382;2024-01-06T01:52:52;5.97;;;4.40;;
10005;SDS011;5042;42.626;23.382;2024-01-06T01:55:20;5.83;;;4.60;;
10005;SDS011;5042;42.626;23.382;2024-01-06T01:57:47;6.80;;;5.03;;
10005;SDS011;5042;42.626;23.382;2024-01-06T02:00:14;6.37;;;5.30;;
10005;SDS011;5042;42.626;23.382;2024-01-06T02:02:41;6.17;;;5.30;;
10005;SDS011;5042;42.626;23.382;2024-01-06T02:05:09;6.17;;;5.00;;
10005;SDS011;5042;42.626;23.382;2024-01-06T02:07:36;6.57;;;4.40;;
10005;SDS011;5042;42.626;23.382;2024-01-06T02:10:04;7.37;;;5.23;;
10005;SDS011;5042;42.626;23.382;2024-01-06T02:12:32;6.90;;;5.03;;
10005;SDS011;5042;42.626;23.382;2024-01-06T02:14:58;7.77;;;5.80;;
10005;SDS011;5042;42.626;23.382;2024-01-06T02:17:25;7.23;;;5.10;;
10005;SDS011;5042;42.626;23.382;2024-01-06T02:19:52;7.03;;;5.60;;
10005;SDS011;5042;42.626;23.382;2024-01-06T02:22:21;7.57;;;5.77;;
10005;SDS011;5042;42.626;23.382;2024-01-06T02:24:48;8.93;;;6.00;;
10005;SDS011;5042;42.626;23.382;2024-01-06T02:27:15;6.80;;;5.80;;
10005;SDS011;5042;42.626;23.382;2024-01-06T02:29:41;8.63;;;6.40;;
10005;SDS011;5042;42.626;23.382;2024-01-06T02:32:08;8.40;;;6.40;;
10005;SDS011;5042;42.626;23.382;2024-01-06T02:34:35;8.90;;;6.87;;
10005;SDS011;5042;42.626;23.382;2024-01-06T02:37:03;8.30;;;6.00;;
10005;SDS011;5042;42.626;23.382;2024-01-06T02:39:31;10.00;;;7.73;;
10005;SDS011;5042;42.626;23.382;2024-01-06T02:41:58;14.43;;;11.20;;
10005;SDS011;5042;42.626;23.382;2024-01-06T02:44:25;14.97;;;11.30;;
10005;SDS011;5042;42.626;23.382;2024-01-06T02:46:52;15.83;;;11.63;;
10005;SDS011;5042;42.626;23.382;2024-01-06T02:49:19;15.83;;;11.53;;
10005;SDS011;5042;42.626;23.382;2024-01-06T02:51:46;14.27;;;11.23;;
10005;SDS011;5042;42.626;23.382;2024-01-06T02:54:13;13.30;;;10.50;;
10005;SDS011;5042;42.626;23.382;2024-01-06T02:56:41;15.30;;;10.00;;
10005;SDS011;5042;42.626;23.382;2024-01-06T02:59:08;12.60;;;10.13;;
10005;SDS011;5042;42.626;23.382;2024-01-06T03:01:35;12.77;;;9.20;;
10005;SDS011;5042;42.626;23.382;2024-01-06T03:04:02;11.73;;;8.63;;
10005;SDS011;5042;42.626;23.382;2024-01-06T03:06:29;13.30;;;9.03;;
10005;SDS011;5042;42.626;23.382;2024-01-06T03:08:56;10.30;;;8.67;;
10005;SDS011;5042;42.626;23.382;2024-01-06T03:11:23;12.73;;;8.57;;
10005;SDS011;5042;42.626;23.382;2024-01-06T03:13:51;11.57;;;8.83;;
10005;SDS011;5042;42.626;23.382;2024-01-06T03:16:18;11.53;;;8.83;;
10005;SDS011;5042;42.626;23.382;2024-01-06T03:18:45;10.43;;;8.50;;
10005;SDS011;5042;42.626;23.382;2024-01-06T03:21:19;10.00;;;8.63;;
10005;SDS011;5042;42.626;23.382;2024-01-06T03:23:46;11.40;;;7.83;;
10005;SDS011;5042;42.626;23.382;2024-01-06T03:26:14;10.27;;;8.47;;
10005;SDS011;5042;42.626;23.382;2024-01-06T03:28:41;10.47;;;7.90;;
10005;SDS011;5042;42.626;23.382;2024-01-06T03:31:09;10.63;;;6.90;;
10005;SDS011;5042;42.626;23.382;2024-01-06T03:33:36;8.57;;;7.03;;
10005;SDS011;5042;42.626;23.382;2024-01-06T03:36:04;8.33;;;6.33;;
10005;SDS011;5042;42.626;23.382;2024-01-06T03:38:32;8.77;;;6.90;;
10005;SDS011;5042;42.626;23.382;2024-01-06T03:40:59;8.20;;;6.23;;
10005;SDS011;5042;42.626;23.382;2024-01-06T03:43:26;9.37;;;6.47;;
10005;SDS011;5042;42.626;23.382;2024-01-06T03:45:53;8.27;;;6.77;;
10005;SDS011;5042;42.626;23.382;2024-01-06T03:48:22;8.97;;;7.30;;
10005;SDS011;5042;42.626;23.382;2024-01-06T03:50:49;8.83;;;7.23;;
10005;SDS011;5042;42.626;23.382;2024-01-06T03:53:15;9.47;;;7.80;;
10005;SDS011;5042;42.626;23.382;2024-01-06T03:55:42;8.83;;;7.13;;
10005;SDS011;5042;42.626;23.382;2024-01-06T03:58:09;10.23;;;7.27;;
10005;SDS011;5042;42.626;23.382;2024-01-06T04:00:36;8.80;;;7.40;;
10005;SDS011;5042;42.626;23.382;2024-01-06T04:03:03;9.20;;;7.70;;
10005;SDS011;5042;42.626;23.382;2024-01-06T04:05:33;9.33;;;7.90;;
10005;SDS011;5042;42.626;23.382;2024-01-06T04:08:00;9.37;;;7.10;;
10005;SDS011;5042;42.626;23.382;2024-01-06T04:10:27;9.67;;;7.50;;
10005;SDS011;5042;42.626;23.382;2024-01-06T04:12:53;9.03;;;7.70;;
10005;SDS011;5042;42.626;23.382;2024-01-06T04:15:20;7.70;;;6.87;;
10005;SDS011;5042;42.626;23.382;2024-01-06T04:17:48;8.90;;;6.80;;
10005;SDS011;5042;42.626;23.382;2024-01-06T04:20:17;9.10;;;6.77;;
10005;SDS011;5042;42.626;23.382;2024-01-06T04:22:46;7.93;;;6.40;;
10005;SDS011;5042;42.626;23.382;2024-01-06T04:25:13;8.43;;;6.37;;
10005;SDS011;5042;42.626;23.382;2024-01-06T04:27:39;8.27;;;6.60;;
10005;SDS011;5042;42.626;23.382;2024-01-06T04:30:07;8.77;;;6.37;;
10005;SDS011;5042;42.626;23.382;2024-01-06T04:32:33;8.27;;;6.07;;
10005;SDS011;5042;42.626;23.382;2024-01-06T04:35:00;6.87;;;5.97;;
10005;SDS011;5042;42.626;23.382;2024-01-06T04:37:28;9.47;;;6.70;;
10005;SDS011;5042;42.626;23.382;2024-01-06T04:39:56;7.30;;;6.10;;
10005;SDS011;5042;42.626;23.382;2024-01-06T04:42:24;7.37;;;6.20;;
10005;SDS011;5042;42.626;23.382;2024-01-06T04:44:51;7.70;;;6.90;;
10005;SDS011;5042;42.626;23.382;2024-01-06T04:47:17;8.60;;;6.50;;
10005;SDS011;5042;42.626;23.382;2024-01-06T04:49:44;9.23;;;6.43;;
10005;SDS011;5042;42.626;23.382;2024-01-06T04:52:12;7.63;;;6.47;;
10005;SDS011;5042;42.626;23.382;2024-01-06T04:54:38;9.73;;;6.70;;
10005;SDS011;5042;42.626;23.382;2024-01-06T04:57:07;8.57;;;6.47;;
10005;SDS011;5042;42.626;23.382;2024-01-06T04:59:34;8.93;;;6.60;;
10005;SDS011;5042;42.626;23.382;2024-01-06T05:02:01;10.10;;;7.07;;
10005;SDS011;5042;42.626;23.382;2024-01-06T05:04:29;7.37;;;6.37;;
10005;SDS011;5042;42.626;23.382;2024-01-06T05:06:58;7.20;;;6.33;;
10005;SDS011;5042;42.626;23.382;2024-01-06T05:09:24;9.10;;;6.93;;
10005;SDS011;5042;42.626;23.382;2024-01-06T05:11:52;10.03;;;6.97;;
10005;SDS011;5042;42.626;23.382;2024-01-06T05:14:20;7.57;;;6.77;;
10005;SDS011;5042;42.626;23.382;2024-01-06T05:16:47;8.83;;;6.77;;
10005;SDS011;5042;42.626;23.382;2024-01-06T05:19:14;9.87;;;7.40;;
10005;SDS011;5042;42.626;23.382;2024-01-06T05:21:45;9.93;;;7.73;;
10005;SDS011;5042;42.626;23.382;2024-01-06T05:24:12;9.30;;;7.90;;
10005;SDS011;5042;42.626;23.382;2024-01-06T05:26:39;9.63;;;7.80;;
10005;SDS011;5042;42.626;23.382;2024-01-06T05:29:07;8.87;;;7.53;;
10005;SDS011;5042;42.626;23.382;2024-01-06T05:31:35;8.87;;;7.90;;
10005;SDS011;5042;42.626;23.382;2024-01-06T05:34:02;8.70;;;7.27;;
10005;SDS011;5042;42.626;23.382;2024-01-06T05:36:29;9.10;;;7.47;;
10005;SDS011;5042;42.626;23.382;2024-01-06T05:38:56;7.53;;;6.13;;
10005;SDS011;5042;42.626;23.382;2024-01-06T05:41:24;8.93;;;6.23;;
10005;SDS011;5042;42.626;23.382;2024-01-06T05:43:51;8.53;;;6.30;;
10005;SDS011;5042;42.626;23.382;2024-01-06T05:46:21;7.70;;;6.33;;
10005;SDS011;5042;42.626;23.382;2024-01-06T05:48:49;9.50;;;5.90;;
10005;SDS011;5042;42.626;23.382;2024-01-06T05:51:17;7.60;;;6.37;;
10005;SDS011;5042;42.626;23.382;2024-01-06T05:53:44;6.60;;;5.90;;
10005;SDS011;5042;42.626;23.382;2024-01-06T05:56:10;6.07;;;5.20;;
10005;SDS011;5042;42.626;23.382;2024-01-06T05:58:37;7.23;;;5.67;;
10005;SDS011;5042;42.626;23.382;2024-01-06T06:01:04;7.00;;;6.10;;
10005;SDS011;5042;42.626;23.382;2024-01-06T06:03:32;8.37;;;6.03;;
10005;SDS011;5042;42.626;23.382;2024-01-06T06:06:00;6.80;;;5.80;;
10005;SDS011;5042;42.626;23.382;2024-01-06T06:08:27;9.13;;;5.47;;
10005;SDS011;5042;42.626;23.382;2024-01-06T06:10:54;7.43;;;5.40;;
10005;SDS011;5042;42.626;23.382;2024-01-06T06:13:27;7.13;;;5.30;;
10005;SDS011;5042;42.626;23.382;2024-01-06T06:15:54;6.67;;;5.30;;
10005;SDS011;5042;42.626;23.382;2024-01-06T06:18:21;5.80;;;5.20;;
10005;SDS011;5042;42.626;23.382;2024-01-06T06:20:48;6.33;;;5.17;;
10005;SDS011;5042;42.626;23.382;2024-01-06T06:23:16;6.27;;;5.40;;
10005;SDS011;5042;42.626;23.382;2024-01-06T06:25:43;7.80;;;6.60;;
10005;SDS011;5042;42.626;23.382;2024-01-06T06:28:10;9.80;;;6.67;;
10005;SDS011;5042;42.626;23.382;2024-01-06T06:30:37;6.33;;;5.17;;
10005;SDS011;5042;42.626;23.382;2024-01-06T06:33:04;7.20;;;6.07;;
10005;SDS011;5042;42.626;23.382;2024-01-06T06:35:31;8.40;;;5.50;;
10005;SDS011;5042;42.626;23.382;2024-01-06T06:37:58;7.27;;;5.23;;
10005;SDS011;5042;42.626;23.382;2024-01-06T06:40:27;6.20;;;5.20;;
10005;SDS011;5042;42.626;23.382;2024-01-06T06:42:54;6.97;;;5.33;;
10005;SDS011;5042;42.626;23.382;2024-01-06T06:45:21;8.47;;;5.50;;
10005;SDS011;5042;42.626;23.382;2024-01-06T06:47:48;5.70;;;5.10;;
10005;SDS011;5042;42.626;23.382;2024-01-06T06:50:15;5.77;;;5.07;;
10005;SDS011;5042;42.626;23.382;2024-01-06T06:52:42;6.37;;;5.30;;
10005;SDS011;5042;42.626;23.382;2024-01-06T06:55:10;7.70;;;5.10;;
10005;SDS011;5042;42.626;23.382;2024-01-06T06:57:39;6.87;;;5.23;;
10005;SDS011;5042;42.626;23.382;2024-01-06T07:00:06;8.40;;;5.27;;
10005;SDS011;5042;42.626;23.382;2024-01-06T07:02:34;7.67;;;5.53;;
10005;SDS011;5042;42.626;23.382;2024-01-06T07:05:01;7.33;;;5.00;;
10005;SDS011;5042;42.626;23.382;2024-01-06T07:07:28;7.00;;;5.40;;
10005;SDS011;5042;42.626;23.382;2024-01-06T07:09:55;7.73;;;4.97;;
10005;SDS011;5042;42.626;23.382;2024-01-06T07:12:21;8.67;;;4.90;;
10005;SDS011;5042;42.626;23.382;2024-01-06T07:14:50;7.07;;;5.40;;
10005;SDS011;5042;42.626;23.382;2024-01-06T07:17:17;8.60;;;5.90;;
10005;SDS011;5042;42.626;23.382;2024-01-06T07:19:43;7.83;;;6.10;;
10005;SDS011;5042;42.626;23.382;2024-01-06T07:22:10;7.67;;;6.27;;
10005;SDS011;5042;42.626;23.382;2024-01-06T07:24:37;6.30;;;5.67;;
10005;SDS011;5042;42.626;23.382;2024-01-06T07:27:04;9.87;;;7.63;;
10005;SDS011;5042;42.626;23.382;2024-01-06T07:29:31;10.63;;;7.53;;
10005;SDS011;5042;42.626;23.382;2024-01-06T07:31:59;11.50;;;7.80;;
10005;SDS011;5042;42.626;23.382;2024-01-06T07:34:26;10.40;;;7.97;;
10005;SDS011;5042;42.626;23.382;2024-01-06T07:36:53;12.93;;;7.90;;
10005;SDS011;5042;42.626;23.382;2024-01-06T07:39:20;11.20;;;7.90;;
10005;SDS011;5042;42.626;23.382;2024-01-06T07:41:49;10.73;;;6.97;;
10005;SDS011;5042;42.626;23.382;2024-01-06T07:44:16;12.90;;;7.17;;
10005;SDS011;5042;42.626;23.382;2024-01-06T07:46:47;10.27;;;6.53;;
10005;SDS011;5042;42.626;23.382;2024-01-06T07:49:16;9.37;;;6.27;;
10005;SDS011;5042;42.626;23.382;2024-01-06T07:51:42;6.80;;;5.47;;
10005;SDS011;5042;42.626;23.382;2024-01-06T07:54:09;7.87;;;5.70;;
10005;SDS011;5042;42.626;23.382;2024-01-06T07:56:36;7.77;;;5.30;;
10005;SDS011;5042;42.626;23.382;2024-01-06T07:59:04;8.07;;;4.67;;
10005;SDS011;5042;42.626;23.382;2024-01-06T08:01:31;7.00;;;4.93;;
10005;SDS011;5042;42.626;23.382;2024-01-06T08:03:58;6.10;;;4.90;;
10005;SDS011;5042;42.626;23.382;2024-01-06T08:06:26;5.97;;;4.80;;
10005;SDS011;5042;42.626;23.382;2024-01-06T08:08:53;4.50;;;4.10;;
10005;SDS011;5042;42.626;23.382;2024-01-06T08:11:20;7.60;;;4.23;;
10005;SDS011;5042;42.626;23.382;2024-01-06T08:13:47;6.20;;;4.90;;
10005;SDS011;5042;42.626;23.382;2024-01-06T08:16:14;8.37;;;4.77;;
10005;SDS011;5042;42.626;23.382;2024-01-06T08:18:41;5.63;;;4.27;;
10005;SDS011;5042;42.626;23.382;2024-01-06T08:21:08;6.90;;;4.60;;
10005;SDS011;5042;42.626;23.382;2024-01-06T08:23:36;6.37;;;5.67;;
10005;SDS011;5042;42.626;23.382;2024-01-06T08:26:03;4.40;;;3.77;;
10005;SDS011;5042;42.626;23.382;2024-01-06T08:28:31;4.77;;;4.03;;
10005;SDS011;5042;42.626;23.382;2024-01-06T08:30:58;5.43;;;3.90;;
10005;SDS011;5042;42.626;23.382;2024-01-06T08:33:25;4.30;;;3.90;;
10005;SDS011;5042;42.626;23.382;2024-01-06T08:35:52;5.17;;;4.00;;
10005;SDS011;5042;42.626;23.382;2024-01-06T08:38:19;8.27;;;4.67;;
10005;SDS011;5042;42.626;23.382;2024-01-06T08:40:49;4.63;;;4.17;;
10005;SDS011;5042;42.626;23.382;2024-01-06T08:43:17;6.37;;;4.63;;
10005;SDS011;5042;42.626;23.382;2024-01-06T08:45:44;6.60;;;5.00;;
10005;SDS011;5042;42.626;23.382;2024-01-06T08:48:11;7.63;;;5.20;;
10005;SDS011;5042;42.626;23.382;2024-01-06T08:50:38;7.97;;;4.73;;
10005;SDS011;5042;42.626;23.382;2024-01-06T08:53:05;6.43;;;5.10;;
10005;SDS011;5042;42.626;23.382;2024-01-06T08:55:32;7.87;;;4.97;;
10005;SDS011;5042;42.626;23.382;2024-01-06T08:58:00;5.77;;;5.17;;
10005;SDS011;5042;42.626;23.382;2024-01-06T09:00:27;8.00;;;5.20;;
10005;SDS011;5042;42.626;23.382;2024-01-06T09:02:54;10.97;;;5.27;;
10005;SDS011;5042;42.626;23.382;2024-01-06T09:05:21;8.70;;;5.60;;
10005;SDS011;5042;42.626;23.382;2024-01-06T09:07:48;10.87;;;7.27;;
10005;SDS011;5042;42.626;23.382;2024-01-06T09:10:15;14.03;;;10.50;;
10005;SDS011;5042;42.626;23.382;2024-01-06T09:12:42;14.83;;;9.70;;
10005;SDS011;5042;42.626;23.382;2024-01-06T09:15:11;16.67;;;9.83;;
10005;SDS011;5042;42.626;23.382;2024-01-06T09:17:38;14.67;;;10.80;;
10005;SDS011;5042;42.626;23.382;2024-01-06T09:20:05;17.30;;;11.50;;
10005;SDS011;5042;42.626;23.382;2024-01-06T09:22:33;16.50;;;12.90;;
10005;SDS011;5042;42.626;23.382;2024-01-06T09:25:00;17.53;;;12.00;;
10005;SDS011;5042;42.626;23.382;2024-01-06T09:27:27;19.33;;;12.13;;
10005;SDS011;5042;42.626;23.382;2024-01-06T09:29:54;18.07;;;12.30;;
10005;SDS011;5042;42.626;23.382;2024-01-06T09:32:22;18.70;;;15.37;;
10005;SDS011;5042;42.626;23.382;2024-01-06T09:34:49;19.43;;;13.07;;
10005;SDS011;5042;42.626;23.382;2024-01-06T09:37:16;19.23;;;13.03;;
10005;SDS011;5042;42.626;23.382;2024-01-06T09:39:43;19.53;;;12.77;;
10005;SDS011;5042;42.626;23.382;2024-01-06T09:42:09;17.73;;;11.90;;
10005;SDS011;5042;42.626;23.382;2024-01-06T09:44:37;18.63;;;11.33;;
10005;SDS011;5042;42.626;23.382;2024-01-06T09:47:04;22.30;;;11.83;;
10005;SDS011;5042;42.626;23.382;2024-01-06T09:49:34;13.23;;;8.83;;
10005;SDS011;5042;42.626;23.382;2024-01-06T09:52:04;12.97;;;8.43;;
10005;SDS011;5042;42.626;23.382;2024-01-06T09:54:41;11.60;;;8.90;;
10005;SDS011;5042;42.626;23.382;2024-01-06T09:57:15;12.97;;;9.90;;
10005;SDS011;5042;42.626;23.382;2024-01-06T09:59:43;17.77;;;10.27;;
10005;SDS011;5042;42.626;23.382;2024-01-06T10:02:11;18.53;;;9.67;;
10005;SDS011;5042;42.626;23.382;2024-01-06T10:04:41;14.70;;;11.37;;
10005;SDS011;5042;42.626;23.382;2024-01-06T10:07:09;18.93;;;11.37;;
10005;SDS011;5042;42.626;23.382;2024-01-06T10:09:38;20.47;;;13.40;;
10005;SDS011;5042;42.626;23.382;2024-01-06T10:12:07;32.60;;;22.83;;
10005;SDS011;5042;42.626;23.382;2024-01-06T10:14:34;33.17;;;23.07;;
10005;SDS011;5042;42.626;23.382;2024-01-06T10:17:01;29.80;;;22.07;;
10005;SDS011;5042;42.626;23.382;2024-01-06T10:19:28;36.00;;;26.70;;
10005;SDS011;5042;42.626;23.382;2024-01-06T10:21:57;34.13;;;25.07;;
10005;SDS011;5042;42.626;23.382;2024-01-06T10:24:27;29.93;;;22.37;;
10005;SDS011;5042;42.626;23.382;2024-01-06T10:26:55;31.70;;;23.97;;
10005;SDS011;5042;42.626;23.382;2024-01-06T10:29:21;33.23;;;23.93;;
10005;SDS011;5042;42.626;23.382;2024-01-06T10:31:48;30.00;;;23.27;;
10005;SDS011;5042;42.626;23.382;2024-01-06T10:34:15;31.33;;;24.97;;
10005;SDS011;5042;42.626;23.382;2024-01-06T10:36:42;36.47;;;25.40;;
10005;SDS011;5042;42.626;23.382;2024-01-06T10:39:11;31.57;;;23.53;;
10005;SDS011;5042;42.626;23.382;2024-01-06T10:41:40;31.60;;;23.67;;
10005;SDS011;5042;42.626;23.382;2024-01-06T10:44:08;30.00;;;22.10;;
10005;SDS011;5042;42.626;23.382;2024-01-06T10:46:37;30.27;;;22.10;;
10005;SDS011;5042;42.626;23.382;2024-01-06T10:49:05;28.50;;;20.30;;
10005;SDS011;5042;42.626;23.382;2024-01-06T10:51:33;24.63;;;20.23;;
10005;SDS011;5042;42.626;23.382;2024-01-06T10:54:02;25.30;;;20.33;;
10005;SDS011;5042;42.626;23.382;2024-01-06T10:56:31;26.50;;;20.67;;
10005;SDS011;5042;42.626;23.382;2024-01-06T10:59:03;25.40;;;20.00;;
10005;SDS011;5042;42.626;23.382;2024-01-06T11:01:31;27.27;;;20.80;;
10005;SDS011;5042;42.626;23.382;2024-01-06T11:03:59;26.20;;;19.93;;
10005;SDS011;5042;42.626;23.382;2024-01-06T11:06:28;25.23;;;19.60;;
10005;SDS011;5042;42.626;23.382;2024-01-06T11:08:57;26.90;;;18.63;;
10005;SDS011;5042;42.626;23.382;2024-01-06T11:11:28;25.33;;;19.97;;
10005;SDS011;5042;42.626;23.382;2024-01-06T11:16:49;23.63;;;18.50;;
10005;SDS011;5042;42.626;23.382;2024-01-06T11:22:24;25.23;;;16.53;;
10005;SDS011;5042;42.626;23.382;2024-01-06T11:24:54;25.50;;;16.43;;
10005;SDS011;5042;42.626;23.382;2024-01-06T11:27:23;23.63;;;17.07;;
10005;SDS011;5042;42.626;23.382;2024-01-06T11:29:53;21.10;;;16.20;;
10005;SDS011;5042;42.626;23.382;2024-01-06T11:32:26;24.97;;;17.63;;
10005;SDS011;5042;42.626;23.382;2024-01-06T11:34:54;25.23;;;17.87;;
10005;SDS011;5042;42.626;23.382;2024-01-06T11:37:24;25.27;;;17.73;;
10005;SDS011;5042;42.626;23.382;2024-01-06T11:39:52;27.33;;;18.40;;
10005;SDS011;5042;42.626;23.382;2024-01-06T11:42:19;25.00;;;16.93;;
10005;SDS011;5042;42.626;23.382;2024-01-06T11:44:49;20.73;;;15.97;;
10005;SDS011;5042;42.626;23.382;2024-01-06T11:47:17;16.67;;;12.33;;
10005;SDS011;5042;42.626;23.382;2024-01-06T11:49:50;18.17;;;12.60;;
10005;SDS011;5042;42.626;23.382;2024-01-06T11:52:21;16.50;;;13.63;;
10005;SDS011;5042;42.626;23.382;2024-01-06T11:54:50;12.47;;;9.73;;
10005;SDS011;5042;42.626;23.382;2024-01-06T11:57:18;16.83;;;11.83;;
10005;SDS011;5042;42.626;23.382;2024-01-06T11:59:46;18.97;;;11.57;;
10005;SDS011;5042;42.626;23.382;2024-01-06T12:02:13;18.00;;;11.33;;
10005;SDS011;5042;42.626;23.382;2024-01-06T12:04:41;15.90;;;9.90;;
10005;SDS011;5042;42.626;23.382;2024-01-06T12:07:10;13.53;;;11.00;;
10005;SDS011;5042;42.626;23.382;2024-01-06T12:09:40;21.87;;;17.30;;
10005;SDS011;5042;42.626;23.382;2024-01-06T12:12:07;17.63;;;14.30;;
10005;SDS011;5042;42.626;23.382;2024-01-06T12:14:36;14.90;;;10.80;;
10005;SDS011;5042;42.626;23.382;2024-01-06T12:17:03;10.63;;;8.63;;
10005;SDS011;5042;42.626;23.382;2024-01-06T12:19:31;12.50;;;9.17;;
10005;SDS011;5042;42.626;23.382;2024-01-06T12:21:58;12.97;;;9.73;;
10005;SDS011;5042;42.626;23.382;2024-01-06T12:24:28;14.17;;;9.77;;
10005;SDS011;5042;42.626;23.382;2024-01-06T12:26:55;14.63;;;10.57;;
10005;SDS011;5042;42.626;23.382;2024-01-06T12:29:24;15.20;;;10.20;;
10005;SDS011;5042;42.626;23.382;2024-01-06T12:31:53;13.10;;;10.70;;
10005;SDS011;5042;42.626;23.382;2024-01-06T12:34:20;14.67;;;10.57;;
10005;SDS011;5042;42.626;23.382;2024-01-06T12:36:46;13.83;;;9.80;;
10005;SDS011;5042;42.626;23.382;2024-01-06T12:39:13;11.37;;;8.97;;
10005;SDS011;5042;42.626;23.382;2024-01-06T12:41:42;11.70;;;8.50;;
10005;SDS011;5042;42.626;23.382;2024-01-06T12:44:10;12.90;;;9.00;;
10005;SDS011;5042;42.626;23.382;2024-01-06T12:46:37;12.27;;;8.40;;
10005;SDS011;5042;42.626;23.382;2024-01-06T12:49:05;13.63;;;9.23;;
10005;SDS011;5042;42.626;23.382;2024-01-06T12:51:32;15.10;;;9.60;;
10005;SDS011;5042;42.626;23.382;2024-01-06T12:53:59;17.03;;;9.77;;
10005;SDS011;5042;42.626;23.382;2024-01-06T12:56:25;17.90;;;9.87;;
10005;SDS011;5042;42.626;23.382;2024-01-06T12:58:54;15.37;;;9.67;;
10005;SDS011;5042;42.626;23.382;2024-01-06T13:01:21;12.93;;;9.40;;
10005;SDS011;5042;42.626;23.382;2024-01-06T13:03:48;12.83;;;9.03;;
10005;SDS011;5042;42.626;23.382;2024-01-06T13:06:15;13.47;;;8.80;;
10005;SDS011;5042;42.626;23.382;2024-01-06T13:08:44;15.03;;;9.67;;
10005;SDS011;5042;42.626;23.382;2024-01-06T13:11:11;14.20;;;10.80;;
10005;SDS011;5042;42.626;23.382;2024-01-06T13:13:38;15.57;;;10.87;;
10005;SDS011;5042;42.626;23.382;2024-01-06T13:16:06;11.03;;;7.90;;
10005;SDS011;5042;42.626;23.382;2024-01-06T13:18:34;13.80;;;8.33;;
10005;SDS011;5042;42.626;23.382;2024-01-06T13:21:01;10.90;;;9.10;;
10005;SDS011;5042;42.626;23.382;2024-01-06T13:23:28;14.30;;;8.63;;
10005;SDS011;5042;42.626;23.382;2024-01-06T13:25:55;12.07;;;8.83;;
10005;SDS011;5042;42.626;23.382;2024-01-06T13:28:23;10.93;;;8.30;;
10005;SDS011;5042;42.626;23.382;2024-01-06T13:30:50;13.17;;;9.37;;
10005;SDS011;5042;42.626;23.382;2024-01-06T13:33:20;13.83;;;8.90;;
10005;SDS011;5042;42.626;23.382;2024-01-06T13:35:47;13.13;;;9.30;;
10005;SDS011;5042;42.626;23.382;2024-01-06T13:38:14;10.93;;;8.60;;
10005;SDS011;5042;42.626;23.382;2024-01-06T13:40:42;13.60;;;9.97;;
10005;SDS011;5042;42.626;23.382;2024-01-06T13:43:09;16.27;;;10.60;;
10005;SDS011;5042;42.626;23.382;2024-01-06T13:45:40;15.30;;;9.90;;
10005;SDS011;5042;42.626;23.382;2024-01-06T13:48:08;14.97;;;8.90;;
10005;SDS011;5042;42.626;23.382;2024-01-06T13:50:37;13.33;;;10.07;;
10005;SDS011;5042;42.626;23.382;2024-01-06T13:53:04;12.83;;;9.57;;
10005;SDS011;5042;42.626;23.382;2024-01-06T13:55:31;13.30;;;9.83;;
10005;SDS011;5042;42.626;23.382;2024-01-06T13:57:59;13.20;;;9.23;;
10005;SDS011;5042;42.626;23.382;2024-01-06T14:00:26;11.97;;;9.30;;
10005;SDS011;5042;42.626;23.382;2024-01-06T14:02:53;12.93;;;9.23;;
10005;SDS011;5042;42.626;23.382;2024-01-06T14:05:21;13.83;;;8.93;;
10005;SDS011;5042;42.626;23.382;2024-01-06T14:07:50;12.73;;;10.70;;
10005;SDS011;5042;42.626;23.382;2024-01-06T14:10:17;12.53;;;9.83;;
10005;SDS011;5042;42.626;23.382;2024-01-06T14:12:44;14.13;;;9.17;;
10005;SDS011;5042;42.626;23.382;2024-01-06T14:15:11;13.30;;;8.73;;
10005;SDS011;5042;42.626;23.382;2024-01-06T14:17:38;14.17;;;9.03;;
10005;SDS011;5042;42.626;23.382;2024-01-06T14:20:06;16.77;;;8.27;;
10005;SDS011;5042;42.626;23.382;2024-01-06T14:22:38;11.90;;;8.33;;
10005;SDS011;5042;42.626;23.382;2024-01-06T14:25:07;9.80;;;7.80;;
10005;SDS011;5042;42.626;23.382;2024-01-06T14:27:34;16.43;;;9.20;;
10005;SDS011;5042;42.626;23.382;2024-01-06T14:30:01;13.40;;;9.20;;
10005;SDS011;5042;42.626;23.382;2024-01-06T14:32:28;13.97;;;8.70;;
10005;SDS011;5042;42.626;23.382;2024-01-06T14:34:55;14.40;;;8.77;;
10005;SDS011;5042;42.626;23.382;2024-01-06T14:37:22;12.07;;;9.30;;
10005;SDS011;5042;42.626;23.382;2024-01-06T14:39:49;18.73;;;10.30;;
10005;SDS011;5042;42.626;23.382;2024-01-06T14:42:17;20.23;;;10.17;;
10005;SDS011;5042;42.626;23.382;2024-01-06T14:44:45;18.67;;;11.20;;
10005;SDS011;5042;42.626;23.382;2024-01-06T14:47:12;20.17;;;10.97;;